Capeville, Virginia
Current Conditions -  °F | °C
As of 10:58 PM on Tuesday 21 Oct 2014 (Local Time) from KLFI Reporting Station
Overcast Overcast  
Wind Chill: 61°   Ceiling: 12000
Heat Index: 61°   Visibility: 10mi
Dew Point: 54°   Wind: 10mph
Humidity: 77%   Direction: 300°WNW
Pressure: 29.87"   Gusts: NA
Location:  37.2°N, 75.96°W
Report Text: KLFI 220258Z AUTO 30009KT 10SM SCT100 OVC120 16/12 A2987 RMK AO2 SLP122 T01600120 53013 $
Loading
Personal Weather Stations






























Interactive Weather Map
Tropical Storm Tracking
New forecast layout! Learn more

10-Day Weather Forecast

Advertisements
Track Severe Weather on mobile